Time;durP1;ratioP1;P1;durP2;ratioP2;P2;SDS_P1;SDS_P2;PMS_P1;PMS_P2;Temp;Humidity;BMP_temperature;BMP_pressure;BME280_temperature;BME280_humidity;BME280_pressure;Samples;Min_cycle;Max_cycle;Signal;HPM_P1;HPM_P2
2022/04/26 03:37:33;;;;;;;32.63;22.50;;;;;;;8.30;100.00;99993.09;4930171;29;20048;-77
2022/04/26 03:40:00;;;;;;;31.88;22.08;;;;;;;8.41;100.00;100011.09;4925567;29;20483;-77
2022/04/26 03:42:27;;;;;;;30.83;22.10;;;;;;;8.24;100.00;99982.78;4926435;28;20058;-77
2022/04/26 03:44:54;;;;;;;31.67;22.55;;;;;;;8.33;100.00;100006.19;4925642;29;20052;-76
2022/04/26 03:47:21;;;;;;;31.55;21.75;;;;;;;8.38;100.00;100017.38;4927666;29;20054;-77
2022/04/26 03:49:47;;;;;;;33.60;22.92;;;;;;;8.32;100.00;100007.09;4927534;29;20055;-79
2022/04/26 03:52:14;;;;;;;29.63;21.60;;;;;;;8.30;100.00;100001.00;4927205;29;20058;-77
2022/04/26 03:54:41;;;;;;;32.28;22.10;;;;;;;8.46;100.00;100024.97;4924249;29;20115;-77
2022/04/26 03:57:09;;;;;;;30.65;21.83;;;;;;;8.45;100.00;100012.69;4931269;29;20058;-77
2022/04/26 03:59:35;;;;;;;32.22;22.95;;;;;;;8.47;100.00;100021.41;4927578;28;20468;-78
2022/04/26 04:02:03;;;;;;;30.90;22.25;;;;;;;8.43;100.00;100019.81;4923199;29;20059;-77
2022/04/26 04:04:29;;;;;;;32.90;22.60;;;;;;;8.46;100.00;100026.75;4928032;29;20074;-77
2022/04/26 04:06:56;;;;;;;33.08;23.35;;;;;;;8.46;100.00;100030.25;4930297;29;20607;-78
2022/04/26 04:09:23;;;;;;;32.53;22.40;;;;;;;8.46;100.00;100032.88;4929288;28;20081;-77
2022/04/26 04:11:49;;;;;;;32.42;22.52;;;;;;;8.50;100.00;100039.72;4934057;29;20130;-77
2022/04/26 04:14:16;;;;;;;33.63;23.02;;;;;;;8.42;100.00;100018.94;4926120;29;20634;-77
2022/04/26 04:16:42;;;;;;;33.03;22.00;;;;;;;8.54;100.00;100041.28;4931082;29;20075;-78
2022/04/26 04:19:20;;;;;;;32.08;22.30;;;;;;;8.57;100.00;100040.31;4932103;29;20048;-77
2022/04/26 04:21:49;;;;;;;33.58;23.38;;;;;;;8.54;100.00;100032.53;4926317;29;20131;-77
2022/04/26 04:24:17;;;;;;;31.63;22.48;;;;;;;8.55;100.00;100047.44;4925574;29;20074;-77
2022/04/26 04:26:44;;;;;;;32.10;22.65;;;;;;;8.40;100.00;100022.59;4927702;29;20691;-78
2022/04/26 04:29:11;;;;;;;36.20;23.60;;;;;;;8.48;100.00;100049.50;4927205;29;20043;-76
2022/04/26 04:31:40;;;;;;;36.25;23.98;;;;;;;8.30;100.00;100037.06;4934709;29;20452;-77
2022/04/26 04:34:08;;;;;;;37.20;25.05;;;;;;;8.33;100.00;100058.94;4926391;29;20048;-78
2022/04/26 04:36:39;;;;;;;36.75;25.13;;;;;;;8.33;100.00;100052.81;4932211;29;20047;-79
2022/04/26 04:39:06;;;;;;;44.08;26.50;;;;;;;8.26;100.00;100049.53;4932210;29;20314;-80
2022/04/26 04:41:36;;;;;;;40.80;26.20;;;;;;;8.35;100.00;100059.72;4927939;29;20114;-80
2022/04/26 04:44:07;;;;;;;42.30;26.48;;;;;;;8.35;100.00;100067.63;4933676;29;20047;-79
2022/04/26 04:46:34;;;;;;;40.67;26.50;;;;;;;8.15;100.00;100046.50;4938674;29;20850;-80
2022/04/26 04:49:02;;;;;;;45.45;27.20;;;;;;;8.18;100.00;100054.28;4935501;29;20058;-80
2022/04/26 04:51:28;;;;;;;42.90;26.70;;;;;;;8.26;100.00;100075.06;4935190;29;20147;-77
2022/04/26 04:53:56;;;;;;;40.40;26.48;;;;;;;8.20;100.00;100070.88;4932124;29;20047;-79
2022/04/26 04:56:24;;;;;;;36.97;25.05;;;;;;;8.10;100.00;100069.56;4936571;29;20078;-81
2022/04/26 04:58:52;;;;;;;35.72;24.83;;;;;;;8.04;100.00;100073.31;4936137;29;20055;-78
2022/04/26 05:01:19;;;;;;;35.03;24.83;;;;;;;7.99;100.00;100077.06;4936515;29;20075;-80
2022/04/26 05:03:46;;;;;;;40.08;25.73;;;;;;;7.92;100.00;100079.09;4929148;29;20052;-81
2022/04/26 05:06:15;;;;;;;39.20;26.00;;;;;;;7.91;100.00;100085.28;4927328;29;20051;-77
2022/04/26 05:08:44;;;;;;;43.20;27.90;;;;;;;7.93;100.00;100083.44;4930638;28;20048;-79
2022/04/26 05:11:11;;;;;;;42.72;27.20;;;;;;;7.89;100.00;100079.22;4931104;29;20047;-75
2022/04/26 05:13:38;;;;;;;43.50;27.75;;;;;;;7.86;100.00;100079.38;4934317;28;20055;-77
2022/04/26 05:16:05;;;;;;;46.78;29.52;;;;;;;7.90;100.00;100080.94;4932483;29;20044;-76
2022/04/26 05:18:32;;;;;;;45.70;28.52;;;;;;;7.90;100.00;100080.06;4928416;29;20043;-76
2022/04/26 05:20:59;;;;;;;44.80;29.02;;;;;;;7.90;100.00;100077.44;4930108;29;20495;-75
2022/04/26 05:26:12;;;;;;;45.35;28.48;;;;;;;7.89;100.00;100070.44;4925301;29;20103;-74
2022/04/26 05:28:39;;;;;;;46.45;28.40;;;;;;;7.91;100.00;100077.38;4928559;29;20078;-75
2022/04/26 05:31:07;;;;;;;42.15;27.15;;;;;;;7.93;100.00;100070.25;4931905;29;20060;-76
2022/04/26 05:33:34;;;;;;;40.50;26.92;;;;;;;7.95;100.00;100080.75;4930257;29;20072;-75
2022/04/26 05:36:01;;;;;;;39.28;24.48;;;;;;;7.95;100.00;100078.97;4929258;29;20055;-75
2022/04/26 05:38:28;;;;;;;39.17;24.88;;;;;;;7.97;100.00;100090.31;4929814;28;20146;-75
2022/04/26 05:40:55;;;;;;;40.05;24.95;;;;;;;7.96;100.00;100085.09;4931516;28;20063;-76
2022/04/26 05:43:22;;;;;;;37.70;24.15;;;;;;;7.95;100.00;100078.13;4928184;28;20123;-77
2022/04/26 05:45:48;;;;;;;38.40;23.13;;;;;;;7.96;100.00;100082.47;4925426;29;20127;-76
2022/04/26 05:48:15;;;;;;;34.95;22.88;;;;;;;8.02;100.00;100098.91;4931157;29;20496;-74
2022/04/26 05:50:42;;;;;;;36.22;22.40;;;;;;;8.00;100.00;100090.19;4938515;28;20078;-77
2022/04/26 05:53:09;;;;;;;38.65;23.42;;;;;;;8.02;100.00;100087.50;4929794;28;20055;-79
2022/04/26 05:55:36;;;;;;;34.75;22.60;;;;;;;8.12;100.00;100094.09;4932552;29;20159;-76
2022/04/26 05:58:03;;;;;;;33.88;22.45;;;;;;;8.13;100.00;100097.59;4931091;29;20051;-75
2022/04/26 06:00:30;;;;;;;35.60;23.45;;;;;;;8.22;100.00;100099.84;4929842;29;20150;-75
2022/04/26 06:02:56;;;;;;;38.70;23.48;;;;;;;8.17;100.00;100081.59;4928151;29;20522;-75
2022/04/26 06:05:23;;;;;;;38.78;24.27;;;;;;;8.31;100.00;100102.09;4913620;29;20480;-77
2022/04/26 06:07:50;;;;;;;38.67;23.25;;;;;;;8.28;100.00;100092.53;4929577;29;20135;-76
2022/04/26 06:10:17;;;;;;;38.53;23.65;;;;;;;8.30;100.00;100098.59;4929230;29;20055;-76
2022/04/26 06:12:45;;;;;;;40.65;24.73;;;;;;;8.29;100.00;100096.03;4930199;29;20111;-76
2022/04/26 06:15:12;;;;;;;41.33;25.52;;;;;;;8.28;100.00;100099.59;4929954;29;20540;-76
2022/04/26 06:17:39;;;;;;;41.67;24.92;;;;;;;8.32;100.00;100102.06;4926305;29;20158;-75
2022/04/26 06:20:06;;;;;;;36.00;23.65;;;;;;;8.29;100.00;100103.94;4929805;29;20062;-76
2022/04/26 06:22:33;;;;;;;43.22;24.98;;;;;;;8.18;100.00;100091.22;4929734;29;20048;-76
2022/04/26 06:25:00;;;;;;;39.75;24.80;;;;;;;8.24;100.00;100109.41;4930751;29;20538;-77
2022/04/26 06:27:26;;;;;;;47.30;25.83;;;;;;;8.28;100.00;100105.72;4929513;28;20059;-75
2022/04/26 06:29:53;;;;;;;47.00;26.15;;;;;;;8.32;100.00;100109.13;4929237;29;20059;-77
2022/04/26 06:32:20;;;;;;;43.47;25.92;;;;;;;8.33;100.00;100118.75;4931271;29;20358;-77
2022/04/26 06:34:47;;;;;;;45.10;26.00;;;;;;;8.31;100.00;100102.09;4930273;29;20126;-76
2022/04/26 06:37:14;;;;;;;48.97;27.35;;;;;;;8.41;100.00;100111.38;4929414;29;20047;-77
2022/04/26 06:39:42;;;;;;;46.00;26.80;;;;;;;8.47;100.00;100118.19;4930511;29;20110;-76
2022/04/26 06:42:09;;;;;;;45.42;26.00;;;;;;;8.51;100.00;100120.59;4927908;28;20142;-76
2022/04/26 06:44:35;;;;;;;48.80;27.17;;;;;;;8.47;100.00;100107.63;4929951;29;20147;-76
2022/04/26 06:47:03;;;;;;;48.53;27.25;;;;;;;8.57;100.00;100115.06;4929190;29;20135;-76
2022/04/26 06:49:30;;;;;;;43.90;25.90;;;;;;;8.62;100.00;100120.16;4932597;29;20048;-76
2022/04/26 06:51:57;;;;;;;50.55;28.15;;;;;;;8.59;100.00;100113.22;4928799;29;20056;-76
2022/04/26 06:54:24;;;;;;;49.35;27.98;;;;;;;8.61;100.00;100114.00;4927779;29;20052;-76
2022/04/26 06:56:51;;;;;;;45.45;27.38;;;;;;;8.64;100.00;100113.88;4931338;29;20066;-75
2022/04/26 06:59:20;;;;;;;47.30;27.55;;;;;;;8.68;100.00;100120.72;4929980;29;20500;-75
2022/04/26 07:01:54;;;;;;;49.53;28.37;;;;;;;8.71;100.00;100119.75;4934021;29;20466;-77
2022/04/26 07:04:21;;;;;;;53.03;28.08;;;;;;;8.68;100.00;100118.09;4926208;29;20136;-76
2022/04/26 07:06:49;;;;;;;49.92;27.50;;;;;;;8.70;100.00;100118.03;4928068;29;20134;-76
2022/04/26 07:09:16;;;;;;;47.85;27.30;;;;;;;8.70;100.00;100124.16;4928318;29;20131;-76
2022/04/26 07:11:42;;;;;;;49.83;27.88;;;;;;;8.70;100.00;100121.53;4930475;29;20059;-75
2022/04/26 07:14:11;;;;;;;48.00;27.55;;;;;;;8.59;100.00;100105.31;4926586;29;20233;-75
2022/04/26 07:16:42;;;;;;;50.53;27.95;;;;;;;8.68;100.00;100115.44;4929062;29;20079;-74
2022/04/26 07:19:09;;;;;;;55.78;29.85;;;;;;;8.77;100.00;100117.69;4925098;29;20056;-74
2022/04/26 07:21:36;;;;;;;52.67;28.88;;;;;;;8.85;100.00;100121.78;4931134;28;20055;-74
2022/04/26 07:24:22;;;;;;;51.97;27.88;;;;;;;8.85;100.00;100137.63;4929874;29;20705;-76
2022/04/26 07:26:50;;;;;;;50.58;28.42;;;;;;;8.87;100.00;100136.63;4929767;29;20063;-76
2022/04/26 07:29:17;;;;;;;51.40;28.88;;;;;;;8.88;100.00;100134.84;4929600;28;20047;-76
2022/04/26 07:31:44;;;;;;;51.78;29.05;;;;;;;8.82;100.00;100133.31;4928730;29;20110;-77
2022/04/26 07:34:21;;;;;;;54.70;29.52;;;;;;;8.81;100.00;100136.91;4929232;29;20523;-78
2022/04/26 07:37:00;;;;;;;50.47;29.75;;;;;;;8.86;100.00;100140.19;4928325;29;20071;-77
2022/04/26 07:39:26;;;;;;;56.90;30.38;;;;;;;8.90;100.00;100140.91;4929505;29;20087;-77
2022/04/26 07:41:54;;;;;;;59.63;31.15;;;;;;;8.91;100.00;100145.28;4929667;29;20169;-78
2022/04/26 07:44:22;;;;;;;54.20;30.67;;;;;;;8.96;100.00;100145.94;4928538;29;20067;-76
2022/04/26 07:46:50;;;;;;;59.35;30.98;;;;;;;9.01;100.00;100139.50;4928059;29;20111;-78
2022/04/26 07:49:19;;;;;;;59.08;32.65;;;;;;;9.11;100.00;100145.25;4944227;28;20044;-76
2022/04/26 07:51:47;;;;;;;59.95;33.38;;;;;;;9.15;100.00;100152.94;4929526;29;20063;-76
2022/04/26 07:54:15;;;;;;;59.13;31.67;;;;;;;9.23;100.00;100155.25;4928261;29;20110;-76
2022/04/26 07:56:42;;;;;;;58.53;32.05;;;;;;;9.30;100.00;100150.53;4931726;28;20063;-75
2022/04/26 07:59:09;;;;;;;58.13;31.13;;;;;;;9.36;100.00;100151.13;4928563;29;20063;-74
2022/04/26 08:01:36;;;;;;;65.70;33.42;;;;;;;9.38;100.00;100148.44;4930757;29;20459;-75
2022/04/26 08:04:04;;;;;;;57.03;30.77;;;;;;;9.48;100.00;100168.19;4928238;29;20114;-76
2022/04/26 08:06:31;;;;;;;56.30;31.23;;;;;;;9.46;100.00;100168.28;4926700;28;20044;-76
2022/04/26 08:08:58;;;;;;;56.67;31.98;;;;;;;9.49;100.00;100172.56;4930168;29;20432;-75
2022/04/26 08:11:28;;;;;;;53.28;30.38;;;;;;;9.57;100.00;100174.88;4927641;29;20052;-76
2022/04/26 08:13:55;;;;;;;51.45;30.85;;;;;;;9.55;100.00;100176.72;4925317;28;20044;-77
2022/04/26 08:16:25;;;;;;;52.78;31.35;;;;;;;9.47;100.00;100170.00;4938703;28;20056;-76
2022/04/26 08:18:52;;;;;;;52.28;29.40;;;;;;;9.48;100.00;100176.13;4939441;29;20049;-75
2022/04/26 08:21:19;;;;;;;49.75;27.95;;;;;;;9.41;100.00;100191.44;4934914;28;20059;-77
2022/04/26 08:29:18;;;;;;;46.35;26.58;;;;;;;9.56;100.00;100205.72;4923938;29;20579;-75
2022/04/26 08:31:45;;;;;;;43.42;25.98;;;;;;;9.62;100.00;100204.56;4921384;29;20123;-77
2022/04/26 08:34:12;;;;;;;40.95;24.77;;;;;;;9.61;100.00;100202.84;4923797;29;20520;-77
2022/04/26 08:36:39;;;;;;;38.88;24.30;;;;;;;9.50;100.00;100206.00;4933169;29;20063;-77
2022/04/26 08:39:06;;;;;;;37.17;22.38;;;;;;;9.50;100.00;100212.16;4930219;29;20433;-76
2022/04/26 08:41:34;;;;;;;32.88;20.13;;;;;;;9.45;100.00;100207.97;4934544;28;20047;-76
2022/04/26 08:44:10;;;;;;;33.83;21.00;;;;;;;9.37;100.00;100218.06;4929590;29;20056;-75
2022/04/26 08:52:15;;;;;;;28.85;16.65;;;;;;;9.13;100.00;100222.63;4889396;29;20521;-75
2022/04/26 08:54:42;;;;;;;29.90;17.35;;;;;;;9.14;100.00;100221.69;4917514;28;20457;-76
2022/04/26 08:57:11;;;;;;;19.60;13.68;;;;;;;9.14;100.00;100221.69;4912863;29;20078;-75
2022/04/26 08:59:49;;;;;;;14.52;10.20;;;;;;;9.05;100.00;100224.75;4917496;28;20134;-75
2022/04/26 09:02:16;;;;;;;11.80;8.38;;;;;;;8.95;100.00;100221.66;4920965;29;20056;-75
2022/04/26 09:04:43;;;;;;;11.80;8.10;;;;;;;8.93;100.00;100230.56;4919009;29;20131;-75
2022/04/26 09:07:12;;;;;;;8.15;5.82;;;;;;;8.89;100.00;100221.06;4921407;29;20107;-76
2022/04/26 09:09:40;;;;;;;7.53;5.68;;;;;;;8.81;100.00;100223.19;4920856;29;20047;-76
2022/04/26 09:12:11;;;;;;;5.60;4.00;;;;;;;8.77;100.00;100231.22;4920772;29;20063;-76
2022/04/26 09:14:40;;;;;;;;;;;;;;;8.67;100.00;100239.56;4931471;29;20044;-74
2022/04/26 09:17:09;;;;;;;3.00;2.67;;;;;;;8.49;100.00;100233.31;4930854;29;19926;-74
2022/04/26 09:19:50;;;;;;;3.45;2.70;;;;;;;8.45;100.00;100239.63;4931567;29;20056;-75
2022/04/26 09:22:27;;;;;;;3.92;3.17;;;;;;;8.47;100.00;100247.47;4926486;29;20070;-75
2022/04/26 09:24:58;;;;;;;3.75;3.10;;;;;;;8.48;100.00;100233.38;4935677;29;20158;-76
2022/04/26 09:27:27;;;;;;;4.25;3.10;;;;;;;8.53;100.00;100239.28;4930624;29;20503;-75
2022/04/26 09:29:53;;;;;;;3.58;3.00;;;;;;;8.60;100.00;100231.06;4929250;29;20059;-76
2022/04/26 09:32:20;;;;;;;5.47;2.90;;;;;;;8.73;100.00;100234.91;4928569;29;20071;-76
2022/04/26 09:34:47;;;;;;;3.22;2.17;;;;;;;8.70;100.00;100242.94;4927495;29;20099;-76
2022/04/26 09:37:14;;;;;;;3.50;2.00;;;;;;;8.70;100.00;100250.88;4914915;29;20047;-76
2022/04/26 09:39:59;;;;;;;2.30;2.00;;;;;;;8.60;100.00;100239.00;4929933;29;20079;-75
2022/04/26 09:42:31;;;;;;;2.10;1.80;;;;;;;8.68;100.00;100254.50;4927239;29;20055;-76
2022/04/26 09:45:10;;;;;;;1.50;1.40;;;;;;;8.56;100.00;100236.53;4926879;28;20056;-76
2022/04/26 09:47:39;;;;;;;2.38;1.60;;;;;;;8.63;100.00;100240.66;4944100;28;20150;-74
2022/04/26 09:50:12;;;;;;;2.72;1.88;;;;;;;8.74;100.00;100252.47;4927919;29;20052;-75
2022/04/26 09:52:39;;;;;;;2.65;2.08;;;;;;;8.81;100.00;100247.81;4928963;29;20107;-76
2022/04/26 09:55:08;;;;;;;3.15;2.33;;;;;;;8.85;100.00;100240.59;4923685;29;20176;-74
2022/04/26 09:57:37;;;;;;;2.83;1.85;;;;;;;8.77;100.00;100230.38;4931295;29;20075;-75
2022/04/26 10:00:10;;;;;;;3.97;2.60;;;;;;;8.83;100.00;100240.66;4929012;29;20502;-77
2022/04/26 10:02:44;;;;;;;3.38;2.03;;;;;;;8.79;100.00;100249.66;4935414;28;20047;-75
2022/04/26 10:05:15;;;;;;;3.20;1.92;;;;;;;8.72;100.00;100251.66;4930815;28;20082;-75
2022/04/26 10:07:48;;;;;;;2.92;1.77;;;;;;;8.64;100.00;100255.56;4928228;28;20082;-77
2022/04/26 10:10:17;;;;;;;2.67;2.25;;;;;;;8.57;100.00;100254.09;4928231;29;20452;-75
2022/04/26 10:13:31;;;;;;;5.43;3.30;;;;;;;8.57;100.00;100254.09;4928261;29;20087;-76
2022/04/26 10:15:32;;;;;;;4.28;3.47;;;;;;;8.63;100.00;100254.72;4932049;29;20126;-75
2022/04/26 10:17:59;;;;;;;7.80;5.07;;;;;;;8.82;100.00;100254.78;4930745;29;20044;-75
2022/04/26 10:20:41;;;;;;;9.60;5.82;;;;;;;8.88;100.00;100264.22;4929270;28;20091;-74
2022/04/26 10:23:08;;;;;;;8.13;5.00;;;;;;;8.88;100.00;100266.88;4931257;29;20484;-75
2022/04/26 10:25:35;;;;;;;11.55;7.18;;;;;;;8.82;100.00;100267.97;4927298;29;20051;-77
2022/04/26 10:28:23;;;;;;;11.02;7.30;;;;;;;8.74;100.00;100273.59;4928708;29;20047;-77
2022/04/26 10:30:52;;;;;;;14.50;9.52;;;;;;;8.79;100.00;100270.78;4931633;29;20070;-76
2022/04/26 10:33:36;;;;;;;18.73;12.55;;;;;;;8.82;100.00;100272.41;4928641;28;20072;-76
2022/04/26 10:36:32;;;;;;;19.10;13.20;;;;;;;8.81;100.00;100282.13;4932145;29;20054;-76
2022/04/26 10:39:05;;;;;;;20.60;13.63;;;;;;;8.71;100.00;100292.19;4923852;29;20134;-76
2022/04/26 10:41:37;;;;;;;21.02;13.90;;;;;;;8.67;100.00;100287.09;4927975;29;20059;-76
2022/04/26 10:44:13;;;;;;;21.35;13.88;;;;;;;8.71;100.00;100294.84;4927765;29;20143;-76
2022/04/26 10:46:40;;;;;;;20.30;13.50;;;;;;;8.75;100.00;100291.16;4944264;28;20070;-75
2022/04/26 10:49:25;;;;;;;21.35;13.57;;;;;;;8.83;100.00;100305.81;4926658;29;20076;-78
2022/04/26 10:51:55;;;;;;;21.60;12.93;;;;;;;8.82;100.00;100302.31;4927689;29;20052;-75
2022/04/26 10:55:03;;;;;;;19.17;12.15;;;;;;;8.85;100.00;100306.59;4927896;29;20063;-76
2022/04/26 10:57:30;;;;;;;16.73;10.52;;;;;;;8.75;100.00;100306.13;4927041;29;20044;-76
2022/04/26 11:00:01;;;;;;;16.63;11.35;;;;;;;8.68;100.00;100308.16;4927337;29;20126;-75
2022/04/26 11:02:31;;;;;;;11.32;9.23;;;;;;;8.64;100.00;100317.13;4928440;29;20102;-76
2022/04/26 11:05:00;;;;;;;;;;;;;;;8.55;100.00;100320.13;4931329;29;20052;-76
2022/04/26 11:07:28;;;;;;;10.10;7.63;;;;;;;8.44;100.00;100325.84;4929939;29;19931;-77
2022/04/26 11:09:57;;;;;;;11.05;8.43;;;;;;;8.39;100.00;100332.22;4928524;29;20491;-76
2022/04/26 11:12:29;;;;;;;10.30;7.90;;;;;;;8.35;100.00;100328.81;4926451;28;20515;-76
2022/04/26 11:14:58;;;;;;;10.30;9.13;;;;;;;8.40;100.00;100336.56;4929436;29;20059;-77
2022/04/26 11:17:27;;;;;;;12.60;9.23;;;;;;;8.46;100.00;100338.13;4933822;29;20079;-76
2022/04/26 11:19:56;;;;;;;13.35;9.45;;;;;;;8.46;100.00;100336.34;4927032;29;20056;-76
2022/04/26 11:22:25;;;;;;;12.25;8.95;;;;;;;8.53;100.00;100332.53;4924789;29;20063;-75
2022/04/26 11:28:00;;;;;;;10.30;8.35;;;;;;;8.65;100.00;100347.03;4929183;29;20055;-75
2022/04/26 11:30:37;;;;;;;10.30;8.35;;;;;;;8.60;100.00;100349.00;4929820;29;20062;-76
2022/04/26 11:33:06;;;;;;;9.30;7.40;;;;;;;8.52;100.00;100337.84;4924046;29;20158;-76
2022/04/26 11:35:35;;;;;;;10.60;7.95;;;;;;;8.47;100.00;100348.63;4929765;29;20476;-76
2022/04/26 11:38:21;;;;;;;9.85;7.65;;;;;;;8.45;100.00;100350.44;4927823;28;20511;-76
2022/04/26 11:40:58;;;;;;;11.85;8.52;;;;;;;8.51;100.00;100355.47;4932139;29;20376;-75
2022/04/26 11:43:28;;;;;;;8.57;7.32;;;;;;;8.63;100.00;100359.44;4925222;29;20516;-76
2022/04/26 11:45:56;;;;;;;11.15;7.88;;;;;;;8.82;100.00;100355.09;4925747;29;20123;-76
2022/04/26 11:48:32;;;;;;;9.40;7.18;;;;;;;9.03;100.00;100367.44;4935688;28;20092;-78
2022/04/26 11:51:00;;;;;;;5.80;3.92;;;;;;;9.19;100.00;100362.41;4929704;28;20055;-77
2022/04/26 11:53:31;;;;;;;3.95;2.90;;;;;;;9.23;100.00;100369.28;4930253;29;20098;-76
2022/04/26 11:56:00;;;;;;;2.70;2.40;;;;;;;9.15;100.00;100374.00;4926367;29;20059;-77
2022/04/26 11:58:27;;;;;;;2.70;2.30;;;;;;;9.08;100.00;100375.19;4929949;29;20059;-75
2022/04/26 12:00:55;;;;;;;1.70;1.60;;;;;;;9.01;100.00;100379.00;4936109;29;20051;-76
2022/04/26 12:03:24;;;;;;;2.67;1.85;;;;;;;8.97;100.00;100380.06;4934294;29;20060;-75
2022/04/26 12:06:03;;;;;;;1.73;1.63;;;;;;;9.01;100.00;100376.34;4929450;29;20111;-76
2022/04/26 12:08:37;;;;;;;2.80;2.08;;;;;;;8.99;100.00;100378.19;4928506;28;20106;-77
2022/04/26 12:11:14;;;;;;;2.60;2.00;;;;;;;9.09;100.00;100384.84;4928586;29;20115;-77
2022/04/26 12:13:41;;;;;;;2.25;2.05;;;;;;;9.16;100.00;100375.72;4927055;29;20146;-76
2022/04/26 12:16:19;;;;;;;2.15;1.60;;;;;;;9.18;100.00;100386.22;4927066;28;20060;-77
2022/04/26 12:18:53;;;;;;;1.67;1.58;;;;;;;9.23;100.00;100387.78;4931471;29;20060;-76
2022/04/26 12:21:21;;;;;;;1.75;1.65;;;;;;;9.19;100.00;100386.16;4929202;28;20071;-78
2022/04/26 12:24:09;;;;;;;2.63;1.83;;;;;;;9.12;100.00;100374.16;4912111;29;20052;-76
2022/04/26 12:26:47;;;;;;;2.25;2.00;;;;;;;9.25;100.00;100395.63;4923997;29;20047;-77
2022/04/26 12:29:14;;;;;;;3.58;2.17;;;;;;;9.30;100.00;100383.06;4925440;29;20043;-77
2022/04/26 12:31:47;;;;;;;2.90;2.60;;;;;;;9.39;100.00;100388.84;4927861;28;20686;-78
2022/04/26 12:34:26;;;;;;;2.83;2.53;;;;;;;9.47;100.00;100386.72;4929685;29;20047;-78
2022/04/26 12:36:56;;;;;;;4.13;2.92;;;;;;;9.53;100.00;100385.63;4925076;29;20197;-78
2022/04/26 12:39:41;;;;;;;3.25;2.95;;;;;;;9.59;100.00;100388.00;4940815;28;20055;-74
2022/04/26 12:42:10;;;;;;;4.85;3.33;;;;;;;9.71;100.00;100389.25;4926526;29;20056;-75
2022/04/26 12:44:57;;;;;;;5.78;4.20;;;;;;;9.87;100.00;100387.66;4926670;29;20054;-79
2022/04/26 12:50:29;;;;;;;4.70;3.85;;;;;;;10.27;100.00;100385.88;4929659;28;20562;-81
2022/04/26 12:53:19;;;;;;;5.35;4.30;;;;;;;10.34;100.00;100392.63;4924986;29;20060;-77
2022/04/26 12:55:46;;;;;;;7.65;3.67;;;;;;;10.34;98.72;100401.44;4921549;29;20087;-78
2022/04/26 12:58:15;;;;;;;5.50;4.00;;;;;;;10.36;100.00;100386.34;4927587;29;20444;-77
2022/04/26 13:00:47;;;;;;;5.10;3.90;;;;;;;10.36;98.15;100385.47;4929128;29;20047;-81
2022/04/26 13:03:18;;;;;;;4.15;3.53;;;;;;;10.34;98.39;100400.56;4928896;29;20115;-76
2022/04/26 13:05:48;;;;;;;4.45;3.85;;;;;;;10.42;98.11;100395.78;4930271;29;20591;-80
2022/04/26 13:08:19;;;;;;;3.92;3.45;;;;;;;10.38;97.99;100392.44;4912978;29;20059;-79
2022/04/26 13:10:47;;;;;;;6.00;3.63;;;;;;;10.14;97.95;100362.59;4930170;29;20055;-80
2022/04/26 13:13:17;;;;;;;5.40;4.20;;;;;;;10.18;98.94;100377.47;4930852;29;20067;-80
2022/04/26 13:15:44;;;;;;;5.85;4.13;;;;;;;10.36;100.00;100385.47;4930820;29;20071;-78
2022/04/26 13:18:14;;;;;;;4.93;4.20;;;;;;;10.55;100.00;100402.22;4908031;29;20051;-79
2022/04/26 13:20:41;;;;;;;4.80;4.22;;;;;;;10.51;98.80;100398.88;4933330;29;20043;-79
2022/04/26 13:23:14;;;;;;;5.13;4.60;;;;;;;10.51;97.83;100395.34;4928177;28;20754;-82
2022/04/26 13:25:42;;;;;;;6.85;4.25;;;;;;;10.56;97.93;100401.28;4914393;29;20617;-78
2022/04/26 13:28:09;;;;;;;6.55;4.90;;;;;;;10.45;98.28;100395.63;4927967;29;20051;-79
2022/04/26 13:30:36;;;;;;;5.72;5.13;;;;;;;10.23;98.23;100397.56;4931698;28;20057;-77
2022/04/26 13:33:04;;;;;;;6.38;4.97;;;;;;;10.02;98.08;100389.63;4932565;29;20044;-80
2022/04/26 13:35:31;;;;;;;6.88;5.55;;;;;;;9.92;99.14;100390.94;4928148;29;20047;-80
2022/04/26 13:37:58;;;;;;;6.70;5.55;;;;;;;9.90;99.49;100402.53;4930081;28;20063;-80
2022/04/26 13:40:25;;;;;;;8.75;6.18;;;;;;;9.70;99.62;100392.81;4929936;29;20468;-82
2022/04/26 13:42:56;;;;;;;;;;;;;;;9.67;100.00;100407.03;4931100;28;20055;-80
2022/04/26 13:45:25;;;;;;;10.13;7.60;;;;;;;9.56;100.00;100405.78;4931924;29;20009;-80
2022/04/26 13:47:52;;;;;;;8.85;7.25;;;;;;;9.46;100.00;100406.16;4930514;29;20090;-80
2022/04/26 13:50:19;;;;;;;10.95;7.95;;;;;;;9.30;100.00;100399.78;4930060;29;20043;-80
2022/04/26 13:52:46;;;;;;;10.98;7.85;;;;;;;9.28;100.00;100411.38;4931615;29;20051;-81
2022/04/26 13:55:17;;;;;;;9.20;7.82;;;;;;;9.22;100.00;100403.69;4928537;29;20465;-80
2022/04/26 13:57:45;;;;;;;10.45;8.13;;;;;;;9.23;100.00;100408.91;4935778;29;20263;-81
2022/04/26 14:00:15;;;;;;;11.88;9.05;;;;;;;9.19;100.00;100407.31;4934152;28;20055;-80
2022/04/26 14:02:45;;;;;;;9.80;8.57;;;;;;;9.21;100.00;100412.53;4931383;29;20407;-82
2022/04/26 14:05:12;;;;;;;11.40;8.52;;;;;;;9.15;100.00;100413.63;4931803;29;20052;-82
2022/04/26 14:07:40;;;;;;;11.25;8.30;;;;;;;9.10;100.00;100405.06;4932472;29;20504;-80
2022/04/26 14:10:08;;;;;;;13.75;8.93;;;;;;;9.06;100.00;100411.38;4932849;29;20131;-79
2022/04/26 14:12:36;;;;;;;11.77;8.73;;;;;;;8.98;100.00;100408.16;4931513;29;20055;-79
2022/04/26 14:23:21;;;;;;;12.20;9.20;;;;;;;8.95;100.00;100413.59;4935473;29;20163;-79
2022/04/26 14:25:48;;;;;;;11.52;9.10;;;;;;;9.08;100.00;100430.66;4951308;28;20515;-80
2022/04/26 14:28:15;;;;;;;12.77;9.25;;;;;;;9.12;100.00;100416.44;4934501;29;20134;-80
2022/04/26 14:30:41;;;;;;;12.85;8.70;;;;;;;9.18;100.00;100421.44;4934330;29;20086;-80
2022/04/26 14:33:09;;;;;;;9.75;8.32;;;;;;;9.15;100.00;100413.63;4931364;29;20560;-79
2022/04/26 14:35:35;;;;;;;11.15;8.93;;;;;;;9.27;100.00;100421.09;4932087;28;20051;-79
2022/04/26 14:38:02;;;;;;;10.82;8.52;;;;;;;9.36;100.00;100427.75;4940135;29;20056;-77
2022/04/26 14:40:29;;;;;;;10.50;8.20;;;;;;;9.33;100.00;100418.16;4928549;29;20070;-79
2022/04/26 14:43:16;;;;;;;11.48;8.15;;;;;;;9.29;100.00;100421.84;4929277;29;20519;-79
2022/04/26 14:45:45;;;;;;;9.50;8.43;;;;;;;9.15;100.00;100406.56;4933846;29;20043;-79
2022/04/26 14:48:18;;;;;;;11.20;8.18;;;;;;;9.34;100.00;100434.88;4932640;29;20039;-78
2022/04/26 14:50:53;;;;;;;10.47;8.50;;;;;;;9.33;100.00;100425.22;4929684;28;20067;-80
2022/04/26 14:53:19;;;;;;;10.23;8.10;;;;;;;9.32;100.00;100423.50;4927967;29;20103;-78
2022/04/26 14:56:02;;;;;;;10.57;8.77;;;;;;;9.36;100.00;100425.97;4914869;29;20043;-77
2022/04/26 14:58:29;;;;;;;11.95;9.23;;;;;;;9.36;100.00;100431.25;4932186;29;20044;-79
2022/04/26 15:00:56;;;;;;;11.77;9.18;;;;;;;9.34;100.00;100419.03;4934546;28;20052;-80
2022/04/26 15:03:23;;;;;;;12.10;9.30;;;;;;;9.43;100.00;100435.38;4930475;28;20491;-78
2022/04/26 15:05:49;;;;;;;11.93;9.43;;;;;;;9.53;100.00;100427.06;4937236;29;20150;-79
2022/04/26 15:11:01;;;;;;;12.15;9.38;;;;;;;9.56;100.00;100435.72;4929343;29;20063;-76
2022/04/26 15:18:59;;;;;;;12.77;9.68;;;;;;;10.07;100.00;100439.69;4929376;29;20082;-79
2022/04/26 15:21:25;;;;;;;12.50;10.32;;;;;;;10.10;100.00;100440.41;4927881;29;20075;-76
2022/04/26 15:23:55;;;;;;;11.63;9.32;;;;;;;10.08;100.00;100442.25;4928865;29;20155;-76
2022/04/26 15:26:26;;;;;;;12.37;9.57;;;;;;;10.08;100.00;100442.25;4924766;29;20198;-78
2022/04/26 15:28:53;;;;;;;;;;;;;;;10.03;100.00;100444.25;4928740;29;20052;-77
2022/04/26 15:31:20;;;;;;;12.27;9.32;;;;;;;9.92;100.00;100432.41;4926855;29;19923;-78
2022/04/26 15:33:48;;;;;;;12.80;9.65;;;;;;;10.03;99.88;100454.84;4929684;29;20055;-76
2022/04/26 15:36:16;;;;;;;13.00;10.25;;;;;;;10.00;100.00;100454.97;4926004;29;20083;-75
2022/04/26 15:38:43;;;;;;;12.63;9.57;;;;;;;9.95;100.00;100458.72;4925106;29;20143;-77
2022/04/26 15:41:10;;;;;;;12.52;10.20;;;;;;;9.98;100.00;100451.53;4930892;29;20079;-77